createdAt,value
2023-03-27T00:01:16.455Z,97059.39752176263
2023-03-27T00:04:18.123Z,97053.90424118374
2023-03-27T00:07:17.033Z,97037.592114896
2023-03-27T00:11:18.395Z,97041.33241033842
2023-03-27T00:14:16.684Z,97033.95299921584
2023-03-27T00:17:16.596Z,97039.29746743933
2023-03-27T00:21:15.829Z,97037.77088718645
2023-03-27T00:24:17.371Z,97031.13863254206
2023-03-27T00:27:16.312Z,97036.93659607101
2023-03-27T00:31:16.808Z,97039.91682045812
2023-03-27T00:34:16.921Z,97033.30509256215
2023-03-27T00:37:17.107Z,97032.82156841656
2023-03-27T00:41:16.052Z,97038.06351914091
2023-03-27T00:44:24.514Z,97035.36065381428
2023-03-27T00:47:18.136Z,97028.71737784038
2023-03-27T00:51:19.194Z,97022.99766699738
2023-03-27T00:54:21.104Z,97021.47545844613
2023-03-27T00:57:18.658Z,97022.15904704826
2023-03-27T01:01:18.273Z,97013.1930967508
2023-03-27T01:04:21.635Z,97010.6766310006
2023-03-27T01:07:16.374Z,97007.18095882259
2023-03-27T01:11:26.881Z,97010.99752075084
2023-03-27T01:14:26.081Z,97010.36090595482
2023-03-27T01:17:32.120Z,97018.45429315831
2023-03-27T01:21:42.660Z,97027.78685669127
2023-03-27T01:24:45.365Z,97018.27094890422
2023-03-27T01:27:22.294Z,97022.81387924105
2023-03-27T01:31:29.676Z,97018.35572807892
2023-03-27T01:35:01.857Z,97021.08541963648
2023-03-27T01:37:31.626Z,97021.35348173523
2023-03-27T01:41:25.996Z,97013.06232490944
2023-03-27T01:44:21.902Z,97011.68012150978
2023-03-27T01:47:26.519Z,97008.60560217462
2023-03-27T01:51:21.670Z,97002.07092233057
2023-03-27T01:54:23.064Z,97005.64991569085
2023-03-27T01:57:20.733Z,97002.5126114058
2023-03-27T02:01:20.325Z,96998.60510095244
2023-03-27T02:04:19.982Z,96992.68659150976
2023-03-27T02:07:26.266Z,96987.83464060622
2023-03-27T02:11:16.416Z,96984.33000288505
2023-03-27T02:14:22.380Z,96992.64430654897
2023-03-27T02:17:19.244Z,96985.14391112838
2023-03-27T02:21:16.419Z,96976.94836357485
2023-03-27T02:24:17.622Z,96968.94198415846
2023-03-27T02:27:23.782Z,96969.7264565089
2023-03-27T02:31:32.245Z,96970.71870940739
2023-03-27T02:34:34.839Z,96970.5987335197
2023-03-27T02:37:32.372Z,96971.82507688389
2023-03-27T02:41:25.665Z,96962.78224879698
2023-03-27T02:44:28.017Z,96954.00659836232
2023-03-27T02:47:23.811Z,96944.21096733907
2023-03-27T02:51:22.017Z,96948.07057754
2023-03-27T02:54:21.480Z,96950.26367927786
2023-03-27T02:57:25.065Z,96952.71079938691
2023-03-27T03:01:20.046Z,96952.72528341456
2023-03-27T03:04:23.066Z,96953.28107194774
2023-03-27T03:07:16.422Z,96955.21175554748
2023-03-27T03:11:16.375Z,96957.26031858572
2023-03-27T03:14:20.147Z,96955.91530654432
2023-03-27T03:17:16.759Z,96948.62773824336
2023-03-27T03:21:16.345Z,96943.4721655438
2023-03-27T03:24:17.371Z,96942.90566061369
2023-03-27T03:27:20.836Z,96946.85469644416
2023-03-27T03:31:16.969Z,96947.42760141683
2023-03-27T03:34:17.516Z,96953.51627634393
2023-03-27T03:37:15.836Z,96963.26780141763
2023-03-27T03:41:16.327Z,96962.51889082711
2023-03-27T03:44:17.184Z,96956.83576898882
2023-03-27T03:47:16.630Z,96951.29539462707
2023-03-27T03:51:15.707Z,96946.18415946292
2023-03-27T03:54:16.078Z,96939.73719486687
2023-03-27T03:57:17.108Z,96931.8675651764
2023-03-27T04:01:21.161Z,96931.82524183318
2023-03-27T04:04:18.043Z,96929.43608046247
2023-03-27T04:07:18.141Z,96920.71161169461
2023-03-27T04:11:16.461Z,96910.13081212723
2023-03-27T04:14:16.339Z,96909.13299702271
2023-03-27T04:17:16.402Z,96909.58826178484
2023-03-27T04:21:17.620Z,96914.01931347819
2023-03-27T04:24:18.133Z,96911.7602262232
2023-03-27T04:27:17.040Z,96907.42394673829
2023-03-27T04:31:16.050Z,96903.08929370252
2023-03-27T04:34:20.490Z,96901.85713619181
2023-03-27T04:37:16.485Z,96896.86300620985
2023-03-27T04:41:16.900Z,96890.76022259727
2023-03-27T04:44:18.098Z,96894.81128969569
2023-03-27T04:47:16.111Z,96892.8885933478
2023-03-27T04:51:16.922Z,96894.65848783405
2023-03-27T04:54:16.066Z,96889.9476252919
2023-03-27T04:57:19.140Z,96878.91614437391
2023-03-27T05:01:17.676Z,96874.2564364892
2023-03-27T05:04:16.740Z,96862.51102478948
2023-03-27T05:07:16.292Z,96853.57325095285
2023-03-27T05:11:15.764Z,96846.66321751247
2023-03-27T05:14:17.281Z,96848.07859267468
2023-03-27T05:17:16.373Z,96849.86001466367
2023-03-27T05:21:16.846Z,96848.3567517329
2023-03-27T05:24:16.374Z,96848.75055724556
2023-03-27T05:27:16.478Z,96855.63563453489
2023-03-27T05:31:15.815Z,96856.9534667446
2023-03-27T05:41:16.185Z,96883.43105143841
2023-03-27T05:44:15.902Z,96876.3558210551
2023-03-27T05:47:16.321Z,96880.44014165217
2023-03-27T05:51:16.347Z,96865.08402826825
2023-03-27T05:54:16.815Z,96859.62209126605
2023-03-27T05:57:16.735Z,96857.69335788008
2023-03-27T06:01:15.493Z,96867.3817376556
2023-03-27T06:04:17.092Z,96878.30075384717
2023-03-27T06:07:16.015Z,96882.29227945398
2023-03-27T06:11:16.260Z,96892.31927949438
2023-03-27T06:14:17.030Z,96896.32853289037
2023-03-27T06:17:16.555Z,96895.31992114661
2023-03-27T06:21:16.515Z,96870.42401964073
2023-03-27T06:24:16.935Z,96872.16935350947
2023-03-27T06:27:16.794Z,96876.17723842012
2023-03-27T06:31:17.619Z,96888.09831654436
2023-03-27T06:34:16.615Z,96887.80508228808
2023-03-27T06:37:16.592Z,96884.95624916458
2023-03-27T06:41:16.527Z,96892.32532290256
2023-03-27T06:44:17.726Z,96894.16527695149
2023-03-27T06:47:17.298Z,96900.22419361476
2023-03-27T06:51:16.083Z,96901.31931637942
2023-03-27T06:54:16.367Z,96908.35821173055
2023-03-27T06:57:16.689Z,96919.57492448633
2023-03-27T07:01:16.065Z,96928.61117954488
2023-03-27T07:11:16.866Z,96953.97373010586
2023-03-27T07:14:16.831Z,96955.15522834474
2023-03-27T07:17:16.733Z,96958.96847590082
2023-03-27T07:21:15.812Z,96948.1099547311
2023-03-27T07:24:16.547Z,96951.82447195648
2023-03-27T07:27:16.494Z,96962.63012612688
2023-03-27T07:31:31.496Z,96953.09478870819
2023-03-27T07:34:16.496Z,96956.41116739895
2023-03-27T07:51:17.388Z,96989.56824380405
2023-03-27T07:54:17.047Z,97000.75363337607
2023-03-27T07:57:16.125Z,97002.68372929865
2023-03-27T08:01:15.836Z,96993.76901470766
2023-03-27T08:04:16.386Z,96988.73397779683
2023-03-27T08:07:16.007Z,96995.09313962811
2023-03-27T08:11:27.812Z,96981.80959606935
2023-03-27T08:14:16.540Z,96974.71464511874
2023-03-27T08:17:17.700Z,96970.97832362512
2023-03-27T08:21:16.253Z,96966.37390766358
2023-03-27T08:24:16.458Z,96948.95640379642
2023-03-27T08:27:16.991Z,96937.03339840866
2023-03-27T08:31:15.840Z,96938.76450799195
2023-03-27T08:34:17.715Z,96961.90071912286
2023-03-27T08:37:16.001Z,96986.17111940005
2023-03-27T08:41:26.251Z,97004.70788021134
2023-03-27T08:44:19.913Z,97013.60765277014
2023-03-27T08:47:21.953Z,97025.43344992638
2023-03-27T08:51:21.514Z,97025.81696330158
2023-03-27T08:54:19.535Z,97038.18152168943
2023-03-27T08:57:18.702Z,97045.36041138615
2023-03-27T09:01:21.187Z,97049.23246923623
2023-03-27T09:04:29.538Z,97051.11316578485
2023-03-27T09:07:23.705Z,97055.26071877565
2023-03-27T09:11:31.277Z,97063.73621429456
2023-03-27T09:14:28.819Z,97072.80999724708
2023-03-27T09:17:22.729Z,97076.21343854618
2023-03-27T09:21:19.673Z,97079.31810756071
2023-03-27T09:24:25.375Z,97086.81671162692
2023-03-27T09:31:22.892Z,97107.26778753664
2023-03-27T09:34:22.293Z,97102.14050958678
2023-03-27T09:37:18.044Z,97104.37345359723
2023-03-27T09:41:20.036Z,97101.30524117507
2023-03-27T09:44:20.826Z,97093.91598616776
2023-03-27T09:47:21.055Z,97099.03799291604
2023-03-27T09:51:36.237Z,97093.06000450204
2023-03-27T09:54:20.010Z,97095.23053859334
2023-03-27T09:57:17.264Z,97094.77743954211
2023-03-27T10:01:26.404Z,97085.72743459612
2023-03-27T10:04:19.443Z,97084.93982820645
2023-03-27T10:07:24.418Z,97079.8097972313
2023-03-27T10:11:18.415Z,97072.27742521542
2023-03-27T10:14:22.040Z,97070.0519391515
2023-03-27T10:17:24.407Z,97073.1176182791
2023-03-27T10:21:25.109Z,97078.44400849169
2023-03-27T10:24:26.289Z,97076.43872000974
2023-03-27T10:27:20.581Z,97087.48283858356
2023-03-27T10:31:27.322Z,97094.84800666847
2023-03-27T10:34:31.553Z,97103.37815099473
2023-03-27T10:41:28.376Z,97120.95886029367
2023-03-27T10:44:19.891Z,97121.67627720995
2023-03-27T10:47:19.635Z,97110.28424379636
2023-03-27T10:51:39.491Z,97115.05529031651
2023-03-27T10:54:38.340Z,97118.18602159192
2023-03-27T10:57:21.964Z,97115.72716973914
2023-03-27T11:01:23.753Z,97115.54221354474
2023-03-27T11:04:22.873Z,97112.00916069494
2023-03-27T11:07:23.640Z,97116.1803664831
2023-03-27T11:11:22.137Z,97112.82456089818
2023-03-27T11:14:22.406Z,97111.58606340669
2023-03-27T11:17:24.843Z,97112.33274712406
2023-03-27T11:21:21.615Z,97114.3686178239
2023-03-27T11:24:27.472Z,97113.19098721583
2023-03-27T11:27:22.441Z,97105.77969069287
2023-03-27T11:31:27.487Z,97102.44818881428
2023-03-27T11:34:28.461Z,97104.96371228888
2023-03-27T11:37:20.949Z,97102.11102433025
2023-03-27T11:41:16.722Z,97104.05721670312
2023-03-27T11:44:16.799Z,97111.95567357253
2023-03-27T11:47:35.902Z,97103.66691220898
2023-03-27T11:51:27.726Z,97116.60306610707
2023-03-27T11:54:30.646Z,97109.76160752006
2023-03-27T11:57:22.048Z,97093.80811039143
2023-03-27T12:01:22.485Z,97103.11732543231
2023-03-27T12:04:34.034Z,97103.46600616362
2023-03-27T12:07:36.361Z,97093.59260930245
2023-03-27T12:11:20.003Z,97077.83616846234
2023-03-27T12:14:49.630Z,97079.18440687991
2023-03-27T12:17:30.074Z,97084.18232814195
2023-03-27T12:21:40.575Z,97073.28973569727
2023-03-27T12:24:26.583Z,97067.44996282103
2023-03-27T12:27:32.434Z,97075.08225402412
2023-03-27T12:31:31.818Z,97068.789198922
2023-03-27T12:34:34.692Z,97082.86497655799
2023-03-27T12:37:19.747Z,97078.45550987236
2023-03-27T12:41:22.517Z,97079.01586653764
2023-03-27T12:44:18.749Z,97078.3946770451
2023-03-27T12:47:23.123Z,97075.95676576401
2023-03-27T12:51:34.721Z,97071.91979873151
2023-03-27T12:54:27.491Z,97077.07051697404
2023-03-27T12:57:19.935Z,97081.20679888848
2023-03-27T13:01:52.408Z,97089.52735561879
2023-03-27T13:04:37.447Z,97108.06611621304
2023-03-27T13:07:22.229Z,97130.56506477339
2023-03-27T13:11:29.694Z,97122.23349033091
2023-03-27T13:15:14.054Z,97122.00424603905
2023-03-27T13:17:37.598Z,97118.36590105793
2023-03-27T13:21:28.007Z,97108.91141059368
2023-03-27T13:24:35.422Z,97106.34737518987
2023-03-27T13:27:31.596Z,97101.71089208599
2023-03-27T13:31:56.956Z,97098.64945467535
2023-03-27T13:42:23.784Z,97104.2159866283
2023-03-27T13:44:23.134Z,97092.48268356465
2023-03-27T13:49:29.171Z,97096.48736334254
2023-03-27T13:51:30.646Z,97107.14937285024
2023-03-27T13:54:35.802Z,97116.6258948082
2023-03-27T13:57:30.295Z,97117.69969783683
2023-03-27T14:01:30.587Z,97124.82066267055
2023-03-27T14:04:37.181Z,97133.8954846337
2023-03-27T14:07:52.131Z,97136.7568691318
2023-03-27T14:11:32.694Z,97138.20188441932
2023-03-27T14:14:46.194Z,97139.8060846618
2023-03-27T14:17:34.590Z,97138.70267137572
2023-03-27T14:21:35.709Z,97138.27744243275
2023-03-27T14:24:26.405Z,97134.48693710209
2023-03-27T14:27:19.922Z,97145.17760954319
2023-03-27T14:31:21.508Z,97144.90037908101
2023-03-27T14:34:19.456Z,97153.97368817774
2023-03-27T14:37:27.201Z,97144.78428270596
2023-03-27T14:41:19.332Z,97131.8642835863
2023-03-27T14:44:18.119Z,97122.41518278563
2023-03-27T14:47:20.955Z,97112.36816424114
2023-03-27T14:51:18.907Z,97114.86947189874
2023-03-27T14:54:20.346Z,97125.53252766156
2023-03-27T14:57:19.109Z,97133.26054385003
2023-03-27T15:01:17.594Z,97119.91015410285
2023-03-27T15:04:17.439Z,97111.372862471
2023-03-27T15:07:20.881Z,97100.05877231683
2023-03-27T15:11:20.620Z,97106.29015674861
2023-03-27T15:14:23.214Z,97122.62327790161
2023-03-27T15:17:18.710Z,97124.30002133576
2023-03-27T15:21:22.047Z,97116.13924766098
2023-03-27T15:24:23.207Z,97127.13276631622
2023-03-27T15:27:21.273Z,97138.569571104
2023-03-27T15:31:17.051Z,97140.57028827346
2023-03-27T15:34:25.399Z,97157.83413316948
2023-03-27T15:37:18.893Z,97155.20875462574
2023-03-27T15:41:51.241Z,97149.75604539193
2023-03-27T15:44:29.869Z,97153.50187071167
2023-03-27T15:47:26.752Z,97163.20010530505
2023-03-27T15:51:28.999Z,97172.60777554318
2023-03-27T15:54:28.539Z,97161.9952425925
2023-03-27T15:57:17.879Z,97158.77685199217
2023-03-27T16:01:20.097Z,97167.98638607952
2023-03-27T16:04:19.037Z,97182.17711217231
2023-03-27T16:07:18.982Z,97234.883847012
2023-03-27T16:11:31.862Z,97303.79114199003
2023-03-27T16:14:26.902Z,97291.5542756103
2023-03-27T16:17:27.832Z,97307.5719597725
2023-03-27T16:21:17.828Z,97318.90421364528
2023-03-27T16:24:16.122Z,97348.4181076026
2023-03-27T16:27:17.143Z,97349.37996162158
2023-03-27T16:31:18.599Z,97344.892707926
2023-03-27T16:34:22.548Z,97356.27208497585
2023-03-27T16:37:16.464Z,97358.38337755053
2023-03-27T16:41:17.208Z,97381.09363801156
2023-03-27T16:44:16.323Z,97382.58986060754
2023-03-27T16:47:16.909Z,97383.92999215158
2023-03-27T16:51:16.218Z,97393.29134311478
2023-03-27T16:54:16.300Z,97390.90471671228
2023-03-27T16:57:16.294Z,97374.36179670284
2023-03-27T17:01:15.666Z,97423.47438657514
2023-03-27T17:04:16.311Z,97428.84678905745
2023-03-27T17:07:16.151Z,97361.31603268544
2023-03-27T17:11:15.969Z,97341.64921052975
2023-03-27T17:14:16.411Z,97328.40071847224
2023-03-27T17:17:16.754Z,97352.55093495167
2023-03-27T17:21:17.053Z,97358.84602103989
2023-03-27T17:24:20.794Z,97334.00589934112
2023-03-27T17:27:16.527Z,97329.74517444585
2023-03-27T17:31:17.312Z,97333.36927615167
2023-03-27T17:34:19.377Z,97332.69081025205
2023-03-27T17:37:19.053Z,97335.0220488032
2023-03-27T17:41:19.128Z,97337.76652066664
2023-03-27T17:44:16.852Z,97343.91929267664
2023-03-27T17:47:16.621Z,97348.69551140824
2023-03-27T17:51:16.504Z,97361.37738515652
2023-03-27T17:54:18.060Z,97364.46295206693
2023-03-27T17:57:16.700Z,97367.53348357462
2023-03-27T18:01:19.335Z,97376.4397834575
2023-03-27T18:04:17.378Z,97394.95725642225
2023-03-27T18:07:16.903Z,97405.92754077977
2023-03-27T18:11:16.187Z,97408.59522343057
2023-03-27T18:14:16.835Z,97422.74848417906
2023-03-27T18:17:20.734Z,97423.26663042465
2023-03-27T18:21:16.636Z,97437.30618079506
2023-03-27T18:24:16.662Z,97452.711670795
2023-03-27T18:27:16.704Z,97456.71383129468
2023-03-27T18:31:19.251Z,97460.1126373006
2023-03-27T18:34:16.958Z,97468.00643954794
2023-03-27T18:37:16.708Z,97478.41112354882
2023-03-27T18:41:16.204Z,97485.92723108995
2023-03-27T18:44:16.721Z,97487.59558247657
2023-03-27T18:47:16.371Z,97500.14436285946
2023-03-27T18:51:18.427Z,97503.16928316616
2023-03-27T18:54:16.599Z,97516.30491427047
2023-03-27T18:57:20.087Z,97521.78745177959
2023-03-27T19:01:16.556Z,97527.99237938625
2023-03-27T19:04:17.346Z,97539.03524385883
2023-03-27T19:07:16.770Z,97543.33264989573
2023-03-27T19:11:17.850Z,97550.20599661848
2023-03-27T19:21:16.227Z,97571.60630802749
2023-03-27T19:24:16.747Z,97576.40881658613
2023-03-27T19:27:23.288Z,97580.31461262966
2023-03-27T19:31:17.120Z,97589.25117118382
2023-03-27T19:34:17.094Z,97590.9867493387
2023-03-27T19:37:17.136Z,97592.82484349549
2023-03-27T19:41:16.667Z,97596.78648694906
2023-03-27T19:44:16.669Z,97595.5017862755
2023-03-27T19:47:16.730Z,97598.63366034937
2023-03-27T19:51:16.757Z,97604.04976037054
2023-03-27T19:54:17.043Z,97608.93228027009
2023-03-27T19:57:17.077Z,97605.28847223576
2023-03-27T20:01:20.055Z,97609.67505051395
2023-03-27T20:04:17.096Z,97620.26049313619
2023-03-27T20:07:17.097Z,97629.17635122183
2023-03-27T20:11:15.819Z,97634.81179267677
2023-03-27T20:14:16.165Z,97637.42199395753
2023-03-27T20:17:28.123Z,97622.71715294546
2023-03-27T20:21:15.945Z,97623.12739560327
2023-03-27T20:24:18.617Z,97615.3109544555
2023-03-27T20:27:19.874Z,97611.47690455322
2023-03-27T20:31:16.741Z,97613.01114238199
2023-03-27T20:34:19.923Z,97613.67806701774
2023-03-27T20:37:16.563Z,97602.52949324255
2023-03-27T20:41:16.380Z,97600.16283871325
2023-03-27T20:44:16.695Z,97616.21753257266
2023-03-27T20:47:19.116Z,97628.28531707032
2023-03-27T20:51:16.318Z,97628.85255350953
2023-03-27T20:54:17.457Z,97631.260595305
2023-03-27T20:57:16.627Z,97633.31152975994
2023-03-27T21:01:19.270Z,97651.22619044033
2023-03-27T21:04:16.730Z,97656.11916371781
2023-03-27T21:07:16.837Z,97654.34206910942
2023-03-27T21:11:16.411Z,97657.03532275882
2023-03-27T21:14:16.674Z,97666.25945522172
2023-03-27T21:17:16.873Z,97662.20298271727
2023-03-27T21:21:16.070Z,97668.71833451522
2023-03-27T21:24:16.631Z,97683.31870880927
2023-03-27T21:27:16.334Z,97673.71775349503
2023-03-27T21:31:16.051Z,97675.83285472142
2023-03-27T21:34:16.320Z,97675.36030121606
2023-03-27T21:37:16.425Z,97667.58439932506
2023-03-27T21:41:16.783Z,97664.29144573883
2023-03-27T21:44:16.279Z,97658.98904981275
2023-03-27T21:47:16.176Z,97655.60522140429
2023-03-27T21:51:15.960Z,97653.65687783489
2023-03-27T21:54:16.014Z,97653.37412374774
2023-03-27T21:57:16.402Z,97657.16624662702
2023-03-27T22:01:17.948Z,97663.49257380635
2023-03-27T22:04:16.551Z,97666.25986514319
2023-03-27T22:07:16.558Z,97667.61973137197
2023-03-27T22:11:16.321Z,97677.1138933234
2023-03-27T22:14:17.358Z,97678.28862997497
2023-03-27T22:17:16.825Z,97681.08995730503
2023-03-27T22:21:18.166Z,97692.68788150138
2023-03-27T22:24:16.295Z,97697.46849693151
2023-03-27T22:27:16.620Z,97701.48123917944
2023-03-27T22:31:15.889Z,97708.44309835702
2023-03-27T22:34:16.039Z,97720.83514324219
2023-03-27T22:37:16.970Z,97729.4060428206
2023-03-27T22:41:16.014Z,97733.07842882814
2023-03-27T22:44:16.024Z,97744.58698871714
2023-03-27T22:47:16.028Z,97745.29999779057
2023-03-27T22:51:16.100Z,97751.87518872942
2023-03-27T22:54:18.730Z,97751.5917718521
2023-03-27T22:57:16.800Z,97760.59053660836
2023-03-27T23:01:16.459Z,97771.6455248697
2023-03-27T23:04:16.787Z,97771.352866887
2023-03-27T23:07:16.793Z,97773.99474466796
2023-03-27T23:11:17.578Z,97777.398319399
2023-03-27T23:14:17.058Z,97783.09911243578
2023-03-27T23:17:16.598Z,97781.7805088727
2023-03-27T23:21:17.579Z,97791.1359489697
2023-03-27T23:24:16.286Z,97790.56637871212
2023-03-27T23:27:16.301Z,97792.39454379606
2023-03-27T23:31:17.522Z,97801.02937101705
2023-03-27T23:34:16.097Z,97806.7464488082
2023-03-27T23:37:15.954Z,97814.10573187005
2023-03-27T23:41:17.317Z,97822.31386565203
2023-03-27T23:44:16.700Z,97830.54148380517
2023-03-27T23:47:16.315Z,97833.88455553967
2023-03-27T23:51:16.395Z,97835.45879388574
2023-03-27T23:54:16.097Z,97849.24382307821
2023-03-27T23:57:15.809Z,97849.62698992585
